Time;durP1;ratioP1;P1;durP2;ratioP2;P2;SDS_P1;SDS_P2;PMS_P1;PMS_P2;Temp;Humidity;BMP_temperature;BMP_pressure;BME280_temperature;BME280_humidity;BME280_pressure;Samples;Min_cycle;Max_cycle;Signal;HPM_P1;HPM_P2
2023/08/12 00:00:11;;;;;;;17.52;8.27;;;19.10;99.90;;;;;;5061616;28;20492;-77
2023/08/12 00:02:58;;;;;;;16.98;7.90;;;19.00;99.90;;;;;;5092274;28;20131;-77
2023/08/12 00:05:45;;;;;;;17.10;8.07;;;19.00;99.90;;;;;;5091409;28;20059;-77
2023/08/12 00:08:31;;;;;;;20.40;9.55;;;19.00;99.90;;;;;;5075147;28;20059;-77
2023/08/12 00:11:17;;;;;;;18.00;8.32;;;19.00;99.90;;;;;;5092747;28;20044;-78
2023/08/12 00:14:04;;;;;;;14.80;8.82;;;19.00;99.90;;;;;;5091545;28;20051;-77
2023/08/12 00:16:50;;;;;;;17.13;8.90;;;18.90;99.90;;;;;;5093106;28;20044;-77
2023/08/12 00:19:36;;;;;;;21.70;7.75;;;18.90;99.90;;;;;;5077938;28;20134;-77
2023/08/12 00:22:22;;;;;;;15.20;7.45;;;19.00;99.90;;;;;;5092138;28;20051;-77
2023/08/12 00:25:09;;;;;;;15.05;7.57;;;19.00;99.90;;;;;;5073805;28;20381;-77
2023/08/12 00:27:55;;;;;;;18.75;7.90;;;19.00;99.90;;;;;;5074621;28;20060;-77
2023/08/12 00:30:41;;;;;;;14.98;7.80;;;19.00;99.90;;;;;;5092294;28;20134;-78
2023/08/12 00:33:27;;;;;;;14.65;7.13;;;19.00;99.90;;;;;;5092776;28;20114;-77
2023/08/12 00:36:13;;;;;;;18.00;8.88;;;19.00;99.90;;;;;;5074839;28;20040;-77
2023/08/12 00:38:59;;;;;;;15.85;7.55;;;19.00;99.90;;;;;;5060226;28;20047;-77
2023/08/12 00:41:46;;;;;;;15.18;8.02;;;19.00;99.90;;;;;;5092373;28;20048;-77
2023/08/12 00:44:41;;;;;;;16.27;8.50;;;18.90;99.90;;;;;;5061948;28;20059;-77
2023/08/12 00:47:28;;;;;;;;;;;18.90;99.90;;;;;;5074941;28;20048;-76
2023/08/12 00:50:15;;;;;;;17.83;8.45;;;18.90;99.90;;;;;;5091717;28;19981;-78
2023/08/12 00:53:01;;;;;;;17.98;8.20;;;18.80;99.90;;;;;;5074005;28;20055;-76
2023/08/12 00:55:47;;;;;;;13.18;6.80;;;18.80;99.90;;;;;;5092525;28;20230;-77
2023/08/12 00:58:34;;;;;;;15.00;7.65;;;18.80;99.90;;;;;;5092056;28;20047;-76
2023/08/12 01:01:20;;;;;;;13.73;7.22;;;18.80;99.90;;;;;;5090979;28;20124;-75
2023/08/12 01:04:06;;;;;;;13.40;6.35;;;18.80;99.90;;;;;;5091892;28;20587;-76
2023/08/12 01:06:52;;;;;;;14.57;6.70;;;18.80;99.90;;;;;;5091671;28;20048;-77
2023/08/12 01:09:39;;;;;;;17.15;7.68;;;18.80;99.90;;;;;;5077342;28;20403;-77
2023/08/12 01:12:31;;;;;;;16.67;6.70;;;18.80;99.90;;;;;;5091945;28;20058;-77
2023/08/12 01:15:23;;;;;;;12.85;6.05;;;18.80;99.90;;;;;;5090954;28;20446;-77
2023/08/12 01:18:11;;;;;;;14.73;6.15;;;18.90;99.90;;;;;;5078405;28;20083;-76
2023/08/12 01:20:58;;;;;;;13.65;6.28;;;18.80;99.90;;;;;;5072615;28;20083;-76
2023/08/12 01:23:45;;;;;;;13.68;6.97;;;18.90;99.90;;;;;;5073086;28;20481;-77
2023/08/12 01:26:31;;;;;;;16.38;7.60;;;18.90;99.90;;;;;;5091573;28;20059;-77
2023/08/12 01:29:18;;;;;;;11.70;6.57;;;18.80;99.90;;;;;;5073652;28;20055;-77
2023/08/12 01:32:18;;;;;;;10.73;5.72;;;18.80;99.90;;;;;;5074126;28;20087;-77
2023/08/12 01:35:20;;;;;;;11.27;6.20;;;18.90;99.90;;;;;;5090882;28;20058;-77
2023/08/12 01:38:09;;;;;;;11.90;5.97;;;18.90;99.90;;;;;;5072657;28;20062;-76
2023/08/12 01:40:56;;;;;;;12.32;6.53;;;18.90;99.90;;;;;;5076720;28;20048;-76
2023/08/12 01:43:42;;;;;;;10.40;5.88;;;19.00;99.90;;;;;;5091370;28;20051;-77
2023/08/12 01:46:28;;;;;;;10.73;6.38;;;18.90;99.90;;;;;;5091484;28;20131;-77
2023/08/12 01:49:14;;;;;;;10.15;5.63;;;18.90;99.90;;;;;;5091549;28;20416;-76
2023/08/12 01:52:00;;;;;;;12.50;6.50;;;18.90;99.90;;;;;;5092117;28;20052;-76
2023/08/12 01:54:46;;;;;;;11.15;5.75;;;18.90;99.90;;;;;;5059859;28;20052;-76
2023/08/12 01:57:33;;;;;;;12.05;5.18;;;18.90;99.90;;;;;;5090729;28;20303;-76
2023/08/12 02:00:19;;;;;;;12.88;5.82;;;18.90;99.90;;;;;;5072526;28;20044;-77
2023/08/12 02:03:05;;;;;;;10.93;5.28;;;18.90;99.90;;;;;;5090681;28;20067;-76
2023/08/12 02:05:51;;;;;;;9.35;4.85;;;18.90;99.90;;;;;;5091226;28;20055;-76
2023/08/12 02:08:37;;;;;;;8.68;5.50;;;18.90;99.90;;;;;;5090777;28;20043;-77
2023/08/12 02:11:23;;;;;;;11.57;5.68;;;18.90;99.90;;;;;;5091261;28;20492;-77
2023/08/12 02:14:09;;;;;;;15.90;7.05;;;18.90;99.90;;;;;;5090851;28;20055;-77
2023/08/12 02:16:55;;;;;;;14.75;6.68;;;18.90;99.90;;;;;;5090949;28;20363;-76
2023/08/12 02:19:41;;;;;;;10.80;5.70;;;18.90;99.90;;;;;;5091181;28;20398;-77
2023/08/12 02:22:29;;;;;;;12.05;5.60;;;18.90;99.90;;;;;;5073260;28;20036;-76
2023/08/12 02:25:15;;;;;;;12.98;6.57;;;18.90;99.90;;;;;;5090499;28;20419;-76
2023/08/12 02:28:01;;;;;;;11.63;5.68;;;18.90;99.90;;;;;;5090705;28;20050;-77
2023/08/12 02:30:47;;;;;;;12.90;5.88;;;18.90;99.90;;;;;;5059000;28;20062;-77
2023/08/12 02:33:33;;;;;;;10.52;6.07;;;18.90;99.90;;;;;;5091162;28;20044;-77
2023/08/12 02:36:20;;;;;;;13.13;5.85;;;18.90;99.90;;;;;;5091203;28;20091;-77
2023/08/12 02:39:06;;;;;;;12.38;6.65;;;18.90;99.90;;;;;;5058915;28;20051;-76
2023/08/12 02:41:52;;;;;;;12.23;6.60;;;18.90;99.90;;;;;;5072608;28;20074;-76
2023/08/12 02:44:38;;;;;;;13.93;5.82;;;18.90;99.90;;;;;;5073131;28;20154;-77
2023/08/12 02:47:24;;;;;;;12.00;6.07;;;18.90;99.90;;;;;;5089083;28;20047;-76
2023/08/12 02:50:10;;;;;;;10.07;5.43;;;18.90;99.90;;;;;;5090623;28;20494;-77
2023/08/12 02:52:56;;;;;;;15.45;6.30;;;18.90;99.90;;;;;;5057344;28;20133;-78
2023/08/12 02:55:42;;;;;;;11.23;5.97;;;18.90;99.90;;;;;;5089074;28;20782;-77
2023/08/12 02:58:28;;;;;;;10.38;6.43;;;18.90;99.90;;;;;;5072341;28;20094;-77
2023/08/12 03:01:14;;;;;;;13.98;6.97;;;18.90;99.90;;;;;;5072073;28;20044;-76
2023/08/12 03:04:00;;;;;;;14.52;6.68;;;18.90;99.90;;;;;;5075339;28;20047;-77
2023/08/12 03:06:46;;;;;;;13.35;6.63;;;18.80;99.90;;;;;;5090197;28;20157;-77
2023/08/12 03:09:32;;;;;;;14.07;7.07;;;18.80;99.90;;;;;;5089540;28;20048;-77
2023/08/12 03:12:18;;;;;;;11.57;6.00;;;18.80;99.90;;;;;;5071789;28;20131;-77
2023/08/12 03:15:08;;;;;;;14.80;7.28;;;18.80;99.90;;;;;;5093016;28;20504;-78
2023/08/12 03:17:55;;;;;;;14.80;6.60;;;18.80;99.90;;;;;;5078383;28;20461;-77
2023/08/12 03:20:41;;;;;;;12.93;6.35;;;18.80;99.90;;;;;;5078152;28;20059;-78
2023/08/12 03:23:27;;;;;;;13.43;7.32;;;18.80;99.90;;;;;;5097755;28;20082;-77
2023/08/12 03:26:14;;;;;;;13.57;6.80;;;18.80;99.90;;;;;;5097024;28;20043;-77
2023/08/12 03:29:00;;;;;;;14.27;7.22;;;18.80;99.90;;;;;;5078251;28;20048;-77
2023/08/12 03:31:46;;;;;;;18.30;7.97;;;18.80;99.90;;;;;;5095207;28;20048;-76
2023/08/12 03:34:32;;;;;;;13.00;7.13;;;18.80;99.90;;;;;;5077843;28;20047;-77
2023/08/12 03:37:18;;;;;;;12.82;6.38;;;18.80;99.90;;;;;;5095173;28;20044;-77
2023/08/12 03:40:06;;;;;;;11.90;6.75;;;18.80;99.90;;;;;;5081790;28;20116;-77
2023/08/12 03:42:52;;;;;;;14.90;6.70;;;18.80;99.90;;;;;;5096798;28;20056;-77
2023/08/12 03:45:45;;;;;;;16.92;7.20;;;18.70;99.90;;;;;;5063042;28;20106;-78
2023/08/12 03:48:31;;;;;;;13.15;7.07;;;18.70;99.90;;;;;;5078186;28;20052;-77
2023/08/12 03:51:17;;;;;;;12.73;7.00;;;18.60;99.90;;;;;;5097006;28;20066;-77
2023/08/12 03:54:04;;;;;;;13.85;6.70;;;18.60;99.90;;;;;;5081814;28;20055;-78
2023/08/12 03:56:50;;;;;;;12.38;7.28;;;18.60;99.90;;;;;;5077776;28;20060;-77
2023/08/12 03:59:36;;;;;;;17.00;7.63;;;18.70;99.90;;;;;;5096646;28;20055;-77
2023/08/12 04:02:22;;;;;;;16.58;7.50;;;18.70;99.90;;;;;;5086898;28;20434;-77
2023/08/12 04:05:08;;;;;;;10.05;6.68;;;18.70;99.90;;;;;;5097267;28;20506;-78
2023/08/12 04:07:54;;;;;;;11.73;6.88;;;18.70;99.90;;;;;;5096808;28;20044;-77
2023/08/12 04:10:40;;;;;;;16.10;8.00;;;18.70;99.90;;;;;;5095000;28;20056;-78
2023/08/12 04:13:26;;;;;;;14.80;7.88;;;18.70;99.90;;;;;;5096707;28;20044;-78
2023/08/12 04:16:12;;;;;;;15.77;8.48;;;18.70;99.90;;;;;;5096524;28;20101;-77
2023/08/12 04:18:58;;;;;;;14.00;7.00;;;18.80;99.90;;;;;;5096181;28;20514;-78
2023/08/12 04:21:46;;;;;;;15.80;7.75;;;18.70;99.90;;;;;;5096851;28;20087;-77
2023/08/12 04:24:32;;;;;;;14.80;7.20;;;18.70;99.90;;;;;;5078034;28;20052;-78
2023/08/12 04:27:18;;;;;;;16.33;7.80;;;18.70;99.90;;;;;;5061298;28;20055;-77
2023/08/12 04:30:05;;;;;;;16.30;7.80;;;18.70;99.90;;;;;;5091836;28;20044;-78
2023/08/12 04:32:51;;;;;;;16.08;7.90;;;18.70;99.90;;;;;;5078842;28;20129;-77
2023/08/12 04:35:38;;;;;;;14.35;8.05;;;18.70;99.90;;;;;;5061457;28;20062;-77
2023/08/12 04:38:24;;;;;;;16.40;7.03;;;18.70;99.90;;;;;;5074334;28;20134;-77
2023/08/12 04:41:10;;;;;;;15.07;7.18;;;18.70;99.90;;;;;;5092389;28;20040;-77
2023/08/12 04:43:56;;;;;;;14.52;7.10;;;18.80;99.90;;;;;;5074627;28;20449;-77
2023/08/12 04:46:42;;;;;;;16.25;7.45;;;18.70;99.90;;;;;;5075121;28;20056;-77
2023/08/12 04:49:28;;;;;;;14.30;7.45;;;18.80;99.90;;;;;;5092570;28;20412;-77
2023/08/12 04:52:15;;;;;;;14.15;7.80;;;18.80;99.90;;;;;;5092699;28;20423;-77
2023/08/12 04:55:01;;;;;;;14.55;7.75;;;18.80;99.90;;;;;;5060662;28;20448;-77
2023/08/12 04:57:47;;;;;;;11.77;7.13;;;18.80;99.90;;;;;;5091600;28;20402;-77
2023/08/12 05:00:33;;;;;;;13.57;8.18;;;18.80;99.90;;;;;;5074008;28;20102;-78
2023/08/12 05:03:19;;;;;;;12.57;7.50;;;18.80;99.90;;;;;;5091633;28;20040;-77
2023/08/12 05:06:05;;;;;;;15.90;8.38;;;18.90;99.90;;;;;;5092075;28;20090;-77
2023/08/12 05:08:51;;;;;;;17.20;8.38;;;19.00;99.90;;;;;;5092036;28;20127;-77
2023/08/12 05:11:37;;;;;;;16.27;7.72;;;19.00;99.90;;;;;;5073302;28;20086;-77
2023/08/12 05:14:23;;;;;;;14.82;8.15;;;19.10;99.90;;;;;;5091089;28;20044;-77
2023/08/12 05:17:09;;;;;;;15.50;7.38;;;19.10;99.90;;;;;;5092536;28;20051;-77
2023/08/12 05:19:56;;;;;;;13.35;7.88;;;19.20;99.90;;;;;;5091937;28;20041;-77
2023/08/12 05:22:42;;;;;;;15.15;7.68;;;19.20;99.90;;;;;;5090880;28;20048;-77
2023/08/12 05:25:28;;;;;;;15.82;7.90;;;19.30;99.90;;;;;;5091262;28;20543;-77
2023/08/12 05:28:14;;;;;;;14.57;7.47;;;19.30;99.90;;;;;;5092222;28;20051;-77
2023/08/12 05:31:00;;;;;;;13.35;8.48;;;19.40;99.90;;;;;;5090809;28;20047;-77
2023/08/12 05:33:49;;;;;;;13.55;7.47;;;19.40;99.90;;;;;;5091797;28;20088;-77
2023/08/12 05:36:36;;;;;;;14.52;7.47;;;19.50;99.90;;;;;;5092085;28;20113;-76
2023/08/12 05:39:22;;;;;;;13.48;7.32;;;19.60;99.90;;;;;;5090500;28;20040;-77
2023/08/12 05:42:08;;;;;;;13.52;7.78;;;19.60;99.90;;;;;;5073124;28;20485;-77
2023/08/12 05:44:54;;;;;;;11.45;7.10;;;19.70;99.90;;;;;;5091859;28;20058;-77
2023/08/12 05:47:41;;;;;;;14.30;7.13;;;19.80;99.90;;;;;;5091887;28;20112;-77
2023/08/12 05:50:27;;;;;;;14.18;7.00;;;19.90;99.90;;;;;;5091221;28;20078;-77
2023/08/12 05:53:13;;;;;;;13.20;6.95;;;19.90;99.90;;;;;;5073475;28;20044;-77
2023/08/12 05:55:59;;;;;;;14.95;7.43;;;19.90;99.90;;;;;;5089572;28;20078;-79
2023/08/12 05:58:45;;;;;;;13.00;7.95;;;20.00;99.90;;;;;;5091475;28;20052;-76
2023/08/12 06:01:31;;;;;;;15.65;7.68;;;20.00;99.90;;;;;;5073422;28;20052;-77
2023/08/12 06:04:17;;;;;;;13.70;6.60;;;20.00;99.90;;;;;;5071878;28;20043;-78
2023/08/12 06:07:04;;;;;;;15.25;8.02;;;20.00;99.90;;;;;;5091548;28;20043;-77
2023/08/12 06:09:50;;;;;;;12.07;6.70;;;20.00;99.90;;;;;;5072323;28;20074;-77
2023/08/12 06:12:36;;;;;;;15.35;8.60;;;20.00;99.90;;;;;;5091062;28;20094;-78
2023/08/12 06:15:23;;;;;;;16.05;7.20;;;20.00;99.90;;;;;;5082861;28;20044;-76
2023/08/12 06:18:09;;;;;;;13.60;6.78;;;20.10;99.90;;;;;;5073093;28;20056;-77
2023/08/12 06:20:55;;;;;;;13.88;7.80;;;20.00;99.90;;;;;;5091318;28;20160;-77
2023/08/12 06:23:41;;;;;;;13.27;7.45;;;20.00;99.90;;;;;;5090079;28;20097;-77
2023/08/12 06:26:27;;;;;;;11.35;7.32;;;20.10;99.90;;;;;;5090340;28;20467;-78
2023/08/12 06:29:13;;;;;;;15.10;7.90;;;20.10;99.90;;;;;;5091241;28;20071;-77
2023/08/12 06:32:00;;;;;;;14.13;7.35;;;20.10;99.90;;;;;;5089517;28;20527;-77
2023/08/12 06:34:46;;;;;;;16.88;7.07;;;20.10;99.90;;;;;;5071098;28;20098;-77
2023/08/12 06:37:32;;;;;;;13.75;7.95;;;20.10;99.90;;;;;;5090539;28;20044;-77
2023/08/12 06:40:19;;;;;;;21.10;8.10;;;20.10;99.90;;;;;;5072581;28;20083;-78
2023/08/12 06:43:07;;;;;;;16.55;7.05;;;20.10;99.90;;;;;;5072314;28;20495;-77
2023/08/12 06:45:53;;;;;;;14.93;7.57;;;20.10;99.90;;;;;;5090353;28;20134;-78
2023/08/12 06:48:39;;;;;;;13.52;7.88;;;20.10;99.90;;;;;;5090879;28;20087;-78
2023/08/12 06:51:26;;;;;;;14.77;7.53;;;20.10;99.90;;;;;;5072729;28;20063;-77
2023/08/12 06:54:12;;;;;;;12.65;7.13;;;20.10;99.90;;;;;;5089885;28;20051;-77
2023/08/12 06:56:58;;;;;;;12.52;7.35;;;20.20;99.90;;;;;;5089712;28;20051;-77
2023/08/12 06:59:44;;;;;;;15.15;8.20;;;20.20;99.90;;;;;;5058546;28;20047;-78
2023/08/12 07:02:30;;;;;;;15.45;8.85;;;20.20;99.90;;;;;;5071500;28;20189;-77
2023/08/12 07:05:16;;;;;;;16.45;7.82;;;20.20;99.90;;;;;;5090272;28;20044;-75
2023/08/12 07:08:03;;;;;;;17.38;8.43;;;20.20;99.90;;;;;;5090630;28;20047;-78
2023/08/12 07:10:49;;;;;;;14.45;7.40;;;20.20;99.90;;;;;;5089700;28;20059;-78
2023/08/12 07:13:35;;;;;;;15.20;8.15;;;20.20;99.90;;;;;;5089554;28;20094;-78
2023/08/12 07:16:21;;;;;;;15.23;8.40;;;20.20;99.90;;;;;;5072454;28;20063;-78
2023/08/12 07:19:07;;;;;;;14.35;8.00;;;20.20;99.90;;;;;;5089951;28;20051;-77
2023/08/12 07:21:53;;;;;;;12.50;7.28;;;20.20;99.90;;;;;;5058446;28;20055;-77
2023/08/12 07:24:39;;;;;;;19.08;9.23;;;20.20;99.90;;;;;;5070583;28;20064;-77
2023/08/12 07:27:28;;;;;;;15.93;8.52;;;20.20;99.90;;;;;;5089957;28;20138;-77
2023/08/12 07:30:15;;;;;;;17.20;8.57;;;20.20;99.90;;;;;;5071611;28;20060;-77
2023/08/12 07:33:01;;;;;;;14.15;8.88;;;20.30;99.90;;;;;;5075862;28;20048;-77
2023/08/12 07:35:47;;;;;;;18.17;9.18;;;20.30;99.90;;;;;;5089376;28;20487;-77
2023/08/12 07:38:34;;;;;;;17.20;8.93;;;20.40;99.90;;;;;;5090568;28;20054;-77
2023/08/12 07:41:20;;;;;;;17.08;9.60;;;20.40;99.90;;;;;;5075484;28;20156;-77
2023/08/12 07:44:06;;;;;;;21.63;9.80;;;20.50;99.90;;;;;;5071474;28;20055;-77
2023/08/12 07:46:52;;;;;;;17.83;10.32;;;20.50;99.90;;;;;;5075051;28;20040;-77
2023/08/12 07:49:39;;;;;;;20.55;8.85;;;20.50;99.90;;;;;;5089327;28;20054;-78
2023/08/12 07:52:25;;;;;;;20.05;9.00;;;20.60;99.90;;;;;;5071582;28;20060;-77
2023/08/12 07:55:12;;;;;;;14.80;8.70;;;20.70;99.90;;;;;;5057437;28;20775;-76
2023/08/12 07:57:58;;;;;;;15.23;9.35;;;20.70;99.90;;;;;;5089404;28;20052;-77
2023/08/12 08:00:44;;;;;;;15.98;9.30;;;20.80;99.90;;;;;;5089302;28;20087;-77
2023/08/12 08:03:30;;;;;;;18.38;9.35;;;20.80;99.90;;;;;;5094087;28;20101;-78
2023/08/12 08:06:17;;;;;;;17.70;10.38;;;20.80;99.90;;;;;;5079147;28;20113;-77
2023/08/12 08:09:04;;;;;;;17.13;9.65;;;20.80;99.90;;;;;;5074334;28;20051;-76
2023/08/12 08:11:50;;;;;;;20.23;10.95;;;20.80;99.90;;;;;;5092555;28;20473;-78
2023/08/12 08:14:37;;;;;;;18.58;11.13;;;20.70;99.90;;;;;;5092090;28;20051;-78
2023/08/12 08:17:23;;;;;;;21.25;11.95;;;20.70;99.90;;;;;;5093563;28;20050;-78
2023/08/12 08:20:10;;;;;;;26.05;12.52;;;20.60;99.90;;;;;;5075679;28;20098;-78
2023/08/12 08:22:56;;;;;;;23.77;11.82;;;20.60;99.90;;;;;;5091761;28;20495;-78
2023/08/12 08:25:42;;;;;;;20.35;12.75;;;20.50;99.90;;;;;;5075068;28;20117;-78
2023/08/12 08:28:28;;;;;;;23.60;13.48;;;20.50;99.90;;;;;;5093357;28;20052;-78
2023/08/12 08:31:15;;;;;;;24.15;12.32;;;20.40;99.90;;;;;;5092628;28;20521;-77
2023/08/12 08:34:01;;;;;;;28.08;14.48;;;20.50;99.90;;;;;;5075899;28;20101;-78
2023/08/12 08:36:47;;;;;;;31.05;14.32;;;20.50;99.90;;;;;;5093426;28;20044;-79
2023/08/12 08:39:33;;;;;;;24.35;12.85;;;20.50;99.90;;;;;;5074206;28;20035;-78
2023/08/12 08:42:21;;;;;;;24.25;14.00;;;20.50;99.90;;;;;;5074229;28;20052;-78
2023/08/12 08:45:15;;;;;;;29.50;15.05;;;20.50;99.90;;;;;;5074532;28;20048;-77
2023/08/12 08:48:06;;;;;;;28.90;15.55;;;20.50;99.90;;;;;;5090942;28;20048;-78
2023/08/12 08:50:53;;;;;;;19.67;12.52;;;20.40;99.90;;;;;;5092884;28;20052;-77
2023/08/12 08:53:40;;;;;;;29.80;16.20;;;20.40;99.90;;;;;;5091823;28;20798;-77
2023/08/12 08:56:27;;;;;;;25.50;13.80;;;20.40;99.90;;;;;;5091766;28;20056;-76
2023/08/12 08:59:13;;;;;;;23.95;14.45;;;20.50;99.90;;;;;;5073888;28;20052;-75
2023/08/12 09:02:00;;;;;;;24.00;16.05;;;20.50;99.90;;;;;;5092565;28;20109;-76
2023/08/12 09:04:47;;;;;;;27.27;15.70;;;20.40;99.90;;;;;;5091978;28;20119;-76
2023/08/12 09:07:34;;;;;;;27.33;15.48;;;20.50;99.90;;;;;;5074204;28;20086;-76
2023/08/12 09:10:21;;;;;;;29.30;17.55;;;20.50;99.90;;;;;;5074424;28;20404;-76
2023/08/12 09:13:08;;;;;;;32.15;15.88;;;20.60;99.90;;;;;;5073435;28;20203;-76
2023/08/12 09:15:56;;;;;;;32.92;16.42;;;20.70;99.90;;;;;;5091532;28;20044;-76
2023/08/12 09:18:45;;;;;;;26.00;15.63;;;20.70;99.90;;;;;;5074186;28;20048;-76
2023/08/12 09:21:31;;;;;;;27.77;16.35;;;20.60;99.90;;;;;;5092095;28;20052;-76
2023/08/12 09:24:27;;;;;;;31.42;18.75;;;20.60;99.90;;;;;;5091667;28;20440;-76
2023/08/12 09:27:18;;;;;;;29.52;18.45;;;20.70;99.90;;;;;;5073881;28;20044;-76
2023/08/12 09:30:06;;;;;;;29.20;16.15;;;20.70;99.90;;;;;;5092509;28;20047;-76
2023/08/12 09:33:06;;;;;;;29.48;15.25;;;20.70;99.90;;;;;;5091216;28;20524;-75
2023/08/12 09:35:56;;;;;;;30.88;17.48;;;20.60;99.90;;;;;;5091563;28;20102;-76
2023/08/12 09:38:43;;;;;;;32.50;17.17;;;20.50;99.90;;;;;;5091148;28;20044;-77
2023/08/12 09:41:29;;;;;;;27.42;17.10;;;20.50;99.90;;;;;;5091624;28;20035;-76
2023/08/12 09:44:15;;;;;;;34.10;17.80;;;20.50;99.90;;;;;;5090927;28;20052;-76
2023/08/12 09:47:03;;;;;;;26.33;15.95;;;20.40;99.90;;;;;;5092079;28;20072;-77
2023/08/12 09:49:49;;;;;;;28.85;16.13;;;20.40;99.90;;;;;;5055326;28;20045;-77
2023/08/12 09:52:36;;;;;;;28.20;16.80;;;20.40;99.90;;;;;;5085062;28;20059;-76
2023/08/12 09:55:24;;;;;;;23.63;16.30;;;20.40;99.90;;;;;;5072167;28;20565;-77
2023/08/12 09:58:11;;;;;;;29.67;15.52;;;20.40;99.90;;;;;;5073314;28;20130;-78
2023/08/12 10:00:57;;;;;;;29.52;16.35;;;20.40;99.90;;;;;;5073441;28;20059;-78
2023/08/12 10:03:48;;;;;;;29.40;16.02;;;20.50;99.90;;;;;;5076286;28;20130;-77
2023/08/12 10:06:34;;;;;;;31.05;17.35;;;20.50;99.90;;;;;;5073106;28;20055;-77
2023/08/12 10:09:21;;;;;;;27.92;16.90;;;20.50;99.90;;;;;;5072994;28;20109;-77
2023/08/12 10:12:09;;;;;;;26.10;18.05;;;20.50;99.90;;;;;;5091606;28;20074;-77
2023/08/12 10:14:55;;;;;;;27.15;16.27;;;20.60;99.90;;;;;;5091552;28;20056;-77
2023/08/12 10:17:41;;;;;;;26.88;16.77;;;20.70;99.90;;;;;;5091451;28;20052;-77
2023/08/12 10:20:31;;;;;;;23.73;16.60;;;20.70;99.90;;;;;;5091719;28;20143;-77
2023/08/12 10:23:18;;;;;;;24.38;14.93;;;20.80;99.90;;;;;;5072549;28;20052;-77
2023/08/12 10:26:06;;;;;;;24.15;16.65;;;20.80;99.90;;;;;;5090438;28;20052;-77
2023/08/12 10:28:53;;;;;;;26.20;15.82;;;20.90;99.90;;;;;;5089336;28;20040;-76
2023/08/12 10:31:40;;;;;;;25.08;17.02;;;21.00;99.90;;;;;;5091059;28;20056;-77
2023/08/12 10:34:26;;;;;;;25.13;16.48;;;21.10;99.90;;;;;;5071871;28;20079;-77
2023/08/12 10:37:12;;;;;;;23.02;15.80;;;21.20;99.90;;;;;;5090367;28;20040;-74
2023/08/12 10:40:07;;;;;;;26.17;16.67;;;21.30;99.90;;;;;;5090564;28;20398;-75
2023/08/12 10:42:53;;;;;;;23.52;16.48;;;21.50;99.90;;;;;;5071510;28;20056;-74
2023/08/12 10:45:47;;;;;;;23.38;16.13;;;21.60;99.90;;;;;;5072741;28;20059;-74
2023/08/12 10:48:33;;;;;;;19.83;13.43;;;21.50;99.90;;;;;;5090868;28;20048;-77
2023/08/12 10:51:39;;;;;;;17.73;12.88;;;21.60;99.90;;;;;;5071835;28;20055;-75
2023/08/12 10:54:29;;;;;;;15.93;12.57;;;21.70;99.90;;;;;;5089591;28;20052;-75
2023/08/12 10:57:16;;;;;;;15.05;11.43;;;21.60;99.90;;;;;;5070538;28;20144;-75
2023/08/12 11:00:03;;;;;;;8.57;2.72;;;21.60;99.90;;;;;;5051181;28;20048;-75
2023/08/12 11:02:51;;;;;;;8.80;2.40;;;21.00;99.90;;;;;;5051440;28;20109;-75
2023/08/12 11:05:38;;;;;;;8.45;1.95;;;20.40;99.90;;;;;;5068794;28;20048;-76
2023/08/12 11:08:25;;;;;;;9.25;3.22;;;20.20;99.90;;;;;;5051918;28;20466;-75
2023/08/12 11:11:24;;;;;;;8.15;3.35;;;19.90;99.90;;;;;;5069746;28;20056;-75
2023/08/12 11:14:14;;;;;;;6.18;2.13;;;19.70;99.90;;;;;;5070138;28;20125;-75
2023/08/12 11:17:15;;;;;;;7.72;2.70;;;19.60;99.90;;;;;;5070647;28;20067;-75
2023/08/12 11:20:06;;;;;;;9.15;3.03;;;19.70;99.90;;;;;;5070053;28;20055;-76
2023/08/12 11:22:53;;;;;;;11.00;2.65;;;19.70;99.90;;;;;;5069950;28;20053;-76
2023/08/12 11:25:42;;;;;;;9.70;3.67;;;19.70;99.90;;;;;;5070278;28;20115;-76
2023/08/12 11:28:28;;;;;;;9.40;2.72;;;19.90;99.90;;;;;;5069418;28;20040;-75
2023/08/12 11:31:14;;;;;;;9.27;2.17;;;20.10;99.90;;;;;;5068203;28;20412;-75
2023/08/12 11:34:01;;;;;;;6.15;2.38;;;19.90;99.90;;;;;;5037558;28;20519;-76
2023/08/12 11:36:47;;;;;;;7.53;2.72;;;19.90;99.90;;;;;;5072666;28;20049;-76
2023/08/12 11:39:34;;;;;;;7.88;2.55;;;19.90;99.90;;;;;;5067254;28;20539;-75
2023/08/12 11:42:20;;;;;;;7.45;3.05;;;19.70;99.90;;;;;;5073819;28;20091;-75
2023/08/12 11:45:07;;;;;;;9.63;2.55;;;19.60;99.90;;;;;;5073777;28;20056;-75
2023/08/12 11:47:53;;;;;;;14.75;2.70;;;19.40;99.90;;;;;;5072737;28;20056;-75
2023/08/12 11:50:40;;;;;;;5.90;2.20;;;19.30;99.90;;;;;;5053340;28;20084;-75
2023/08/12 11:53:26;;;;;;;10.57;2.35;;;19.20;99.90;;;;;;5073876;28;20145;-75
2023/08/12 11:56:12;;;;;;;9.45;2.25;;;19.30;99.90;;;;;;5073021;28;20064;-75
2023/08/12 11:58:59;;;;;;;9.90;2.92;;;19.30;99.90;;;;;;5074517;28;20051;-75
2023/08/12 12:01:49;;;;;;;10.60;3.72;;;19.30;99.90;;;;;;5072254;28;20143;-76
2023/08/12 12:04:35;;;;;;;9.98;2.15;;;19.40;99.90;;;;;;5072355;28;20095;-74
2023/08/12 12:07:24;;;;;;;9.05;2.45;;;19.30;99.90;;;;;;5080533;28;20189;-76
2023/08/12 12:10:18;;;;;;;10.45;2.17;;;19.30;99.90;;;;;;5086732;28;20500;-75
2023/08/12 12:13:05;;;;;;;8.35;2.35;;;19.40;99.90;;;;;;5073724;28;20052;-75
2023/08/12 12:15:53;;;;;;;8.07;2.00;;;19.40;99.90;;;;;;5054028;28;20052;-76
2023/08/12 12:18:39;;;;;;;7.80;2.15;;;19.40;99.90;;;;;;5089091;28;20139;-76
2023/08/12 12:21:25;;;;;;;6.18;2.20;;;19.40;99.90;;;;;;5072768;28;20048;-76
2023/08/12 12:24:11;;;;;;;13.32;2.55;;;19.60;99.90;;;;;;5073342;28;20067;-76
2023/08/12 12:26:57;;;;;;;6.72;2.22;;;19.70;99.90;;;;;;5069172;28;20059;-75
2023/08/12 12:29:43;;;;;;;8.23;2.10;;;20.00;99.90;;;;;;5074062;28;20123;-76
2023/08/12 12:32:31;;;;;;;10.07;3.30;;;20.10;99.90;;;;;;5071509;28;20048;-75
2023/08/12 12:35:17;;;;;;;12.23;3.75;;;20.30;99.90;;;;;;5073042;28;20052;-75
2023/08/12 12:38:03;;;;;;;12.52;3.38;;;20.30;99.90;;;;;;5072734;28;20048;-76
2023/08/12 12:40:50;;;;;;;7.57;3.08;;;20.20;99.90;;;;;;5072586;28;20155;-76
2023/08/12 12:43:36;;;;;;;9.02;2.80;;;20.30;99.90;;;;;;5072700;28;20048;-75
2023/08/12 12:46:22;;;;;;;10.80;3.50;;;20.10;99.90;;;;;;5072066;28;20106;-75
2023/08/12 12:49:08;;;;;;;11.82;3.22;;;19.90;99.90;;;;;;5071699;28;20056;-76
2023/08/12 12:51:54;;;;;;;12.60;4.38;;;20.00;99.90;;;;;;5071059;28;20052;-75
2023/08/12 12:54:40;;;;;;;10.43;3.10;;;20.20;99.90;;;;;;5073136;28;20059;-75
2023/08/12 12:57:26;;;;;;;14.70;4.35;;;20.40;99.90;;;;;;5070371;28;20135;-75
2023/08/12 13:00:14;;;;;;;13.07;3.58;;;21.10;99.90;;;;;;5071020;28;20500;-75
2023/08/12 13:03:00;;;;;;;15.13;5.57;;;21.70;99.90;;;;;;5071502;28;20071;-76
2023/08/12 13:05:46;;;;;;;15.38;3.95;;;22.50;99.90;;;;;;5057421;28;20051;-76
2023/08/12 13:08:32;;;;;;;15.07;5.55;;;22.70;99.90;;;;;;5070493;28;20044;-76
2023/08/12 13:11:18;;;;;;;12.70;5.00;;;22.90;99.90;;;;;;5073626;28;20418;-75
2023/08/12 13:14:04;;;;;;;14.05;5.38;;;23.20;99.90;;;;;;5070849;28;20071;-75
2023/08/12 13:16:50;;;;;;;14.07;4.45;;;24.00;99.90;;;;;;5071740;28;20102;-75
2023/08/12 13:19:36;;;;;;;11.90;4.25;;;24.20;99.90;;;;;;5068887;28;20139;-76
2023/08/12 13:22:22;;;;;;;11.27;4.38;;;24.90;99.90;;;;;;5071672;28;20044;-75
2023/08/12 13:25:09;;;;;;;20.85;4.60;;;25.30;99.90;;;;;;5070099;28;20441;-76
2023/08/12 13:27:55;;;;;;;12.65;4.40;;;25.20;99.90;;;;;;5071305;28;20059;-75
2023/08/12 13:30:41;;;;;;;10.55;3.33;;;26.70;99.90;;;;;;5071211;28;20097;-75
2023/08/12 13:33:27;;;;;;;10.65;2.38;;;27.60;99.90;;;;;;5069657;28;20053;-76
2023/08/12 13:36:14;;;;;;;12.00;2.70;;;27.50;99.90;;;;;;5070653;28;20083;-77
2023/08/12 13:39:00;;;;;;;12.20;2.83;;;27.30;99.90;;;;;;5071453;28;20048;-77
2023/08/12 13:41:47;;;;;;;9.57;2.17;;;27.20;99.90;;;;;;5070960;28;20084;-76
2023/08/12 13:44:33;;;;;;;9.70;2.00;;;27.70;99.90;;;;;;5072098;28;20058;-77
2023/08/12 13:47:19;;;;;;;6.68;2.15;;;28.70;98.90;;;;;;5070203;28;20052;-76
2023/08/12 13:50:06;;;;;;;10.98;2.20;;;29.50;97.50;;;;;;5071206;28;20044;-76
2023/08/12 13:52:52;;;;;;;7.07;2.55;;;29.60;95.40;;;;;;5070434;28;20097;-77
2023/08/12 13:55:38;;;;;;;13.05;2.75;;;29.50;95.10;;;;;;5071024;28;20045;-77
2023/08/12 13:58:25;;;;;;;9.40;2.20;;;30.60;94.80;;;;;;5070534;28;20137;-75
2023/08/12 14:01:11;;;;;;;8.20;1.63;;;31.30;93.60;;;;;;5069998;28;20515;-77
2023/08/12 14:03:57;;;;;;;10.43;2.00;;;31.00;92.70;;;;;;5071991;28;20389;-76
2023/08/12 14:06:43;;;;;;;9.70;1.92;;;31.70;91.10;;;;;;5070836;28;20257;-76
2023/08/12 14:09:29;;;;;;;7.05;1.67;;;31.70;89.10;;;;;;5069293;28;20091;-77
2023/08/12 14:12:16;;;;;;;8.35;1.67;;;31.60;88.10;;;;;;5071806;28;20052;-77
2023/08/12 14:15:02;;;;;;;7.30;1.45;;;31.80;86.50;;;;;;5069314;28;20063;-77